createdAt,value
2019-04-26T00:00:49.759Z,0.83
2019-04-26T00:03:20.995Z,0.60
2019-04-26T00:06:02.032Z,0.60
2019-04-26T00:08:31.716Z,0.60
2019-04-26T00:11:02.963Z,0.70
2019-04-26T00:13:32.900Z,0.50
2019-04-26T00:16:04.568Z,0.60
2019-04-26T00:18:34.267Z,0.70
2019-04-26T00:21:04.220Z,0.50
2019-04-26T00:23:33.827Z,0.78
2019-04-26T00:26:03.700Z,0.60
2019-04-26T00:28:33.333Z,0.70
2019-04-26T00:31:03.008Z,0.68
2019-04-26T00:33:32.719Z,0.60
2019-04-26T00:36:02.424Z,0.75
2019-04-26T00:38:32.122Z,0.50
2019-04-26T00:41:01.721Z,0.55
2019-04-26T00:43:31.489Z,0.50
2019-04-26T00:46:03.970Z,0.65
2019-04-26T00:48:34.083Z,0.53
2019-04-26T00:51:06.002Z,0.80
2019-04-26T00:56:06.261Z,0.53
2019-04-26T00:58:36.717Z,0.95
2019-04-26T01:01:06.403Z,0.70
2019-04-26T01:03:36.103Z,0.70
2019-04-26T01:06:07.468Z,0.70
2019-04-26T01:08:37.101Z,0.70
2019-04-26T01:11:06.800Z,0.72
2019-04-26T01:13:36.663Z,0.70
2019-04-26T01:16:06.254Z,0.80
2019-04-26T01:18:36.847Z,0.70
2019-04-26T01:21:08.375Z,0.50
2019-04-26T01:23:41.251Z,0.60
2019-04-26T01:26:13.845Z,0.60
2019-04-26T01:28:46.530Z,0.90
2019-04-26T01:31:18.431Z,0.78
2019-04-26T01:36:30.161Z,0.70
2019-04-26T01:39:03.801Z,0.60
2019-04-26T01:41:38.272Z,0.85
2019-04-26T01:44:09.668Z,0.60
2019-04-26T01:46:40.257Z,0.62
2019-04-26T01:49:12.241Z,0.70
2019-04-26T01:51:44.952Z,0.72
2019-04-26T01:54:21.529Z,0.75
2019-04-26T01:56:55.360Z,0.60
2019-04-26T01:59:25.353Z,0.57
2019-04-26T02:01:56.899Z,0.65
2019-04-26T02:04:29.858Z,0.75
2019-04-26T02:07:01.087Z,0.70
2019-04-26T02:09:30.800Z,0.68
2019-04-26T02:12:01.410Z,0.80
2019-04-26T02:14:31.275Z,0.55
2019-04-26T02:17:01.436Z,0.70
2019-04-26T02:19:33.671Z,0.70
2019-04-26T02:22:06.134Z,0.62
2019-04-26T02:24:37.409Z,0.70
2019-04-26T02:27:08.669Z,0.75
2019-04-26T02:29:38.392Z,0.80
2019-04-26T02:32:09.446Z,0.80
2019-04-26T02:34:39.570Z,0.60
2019-04-26T02:37:14.996Z,0.70
2019-04-26T02:39:44.763Z,0.70
2019-04-26T02:42:17.478Z,0.62
2019-04-26T02:44:51.777Z,0.70
2019-04-26T02:47:26.688Z,0.68
2019-04-26T02:50:02.020Z,0.80
2019-04-26T02:52:34.079Z,0.88
2019-04-26T02:55:07.663Z,0.60
2019-04-26T02:57:40.403Z,0.90
2019-04-26T03:00:13.361Z,0.70
2019-04-26T03:02:46.162Z,0.82
2019-04-26T03:05:17.374Z,0.80
2019-04-26T03:07:50.066Z,0.65
2019-04-26T03:10:22.711Z,0.80
2019-04-26T03:12:54.312Z,1.00
2019-04-26T03:15:27.501Z,0.80
2019-04-26T03:18:01.753Z,0.72
2019-04-26T03:20:35.045Z,0.65
2019-04-26T03:23:07.498Z,1.00
2019-04-26T03:25:40.623Z,0.85
2019-04-26T03:28:14.459Z,1.05
2019-04-26T03:30:52.398Z,0.85
2019-04-26T03:33:21.165Z,0.80
2019-04-26T03:35:57.848Z,0.88
2019-04-26T03:38:30.845Z,0.95
2019-04-26T03:41:05.130Z,1.00
2019-04-26T03:43:39.061Z,0.78
2019-04-26T03:46:12.514Z,0.70
2019-04-26T03:48:45.166Z,0.85
2019-04-26T03:51:17.809Z,0.88
2019-04-26T03:53:50.434Z,0.70
2019-04-26T03:56:24.670Z,0.90
2019-04-26T03:58:58.960Z,0.85
2019-04-26T04:01:33.013Z,1.10
2019-04-26T04:04:04.978Z,0.95
2019-04-26T04:09:09.271Z,0.70
2019-04-26T04:11:42.377Z,0.80
2019-04-26T04:14:14.714Z,1.30
2019-04-26T04:16:49.187Z,1.40
2019-04-26T04:19:23.449Z,0.93
2019-04-26T04:21:57.241Z,1.55
2019-04-26T04:24:29.915Z,1.15
2019-04-26T04:27:02.583Z,1.07
2019-04-26T04:29:42.698Z,1.20
2019-04-26T04:32:07.930Z,0.93
2019-04-26T04:34:42.096Z,1.27
2019-04-26T04:37:14.860Z,1.27
2019-04-26T04:39:48.382Z,1.40
2019-04-26T04:42:21.857Z,1.42
2019-04-26T04:44:56.104Z,1.50
2019-04-26T04:47:31.358Z,1.47
2019-04-26T04:50:04.856Z,1.70
2019-04-26T04:52:36.100Z,1.60
2019-04-26T04:55:08.745Z,1.62
2019-04-26T04:57:41.983Z,2.05
2019-04-26T05:00:16.295Z,1.30
2019-04-26T05:02:49.334Z,1.37
2019-04-26T05:05:22.101Z,1.55
2019-04-26T05:08:05.387Z,1.60
2019-04-26T05:10:29.062Z,1.37
2019-04-26T05:13:01.717Z,1.72
2019-04-26T05:15:37.023Z,1.70
2019-04-26T05:18:12.789Z,1.37
2019-04-26T05:20:45.938Z,1.65
2019-04-26T05:23:18.387Z,1.50
2019-04-26T05:25:51.418Z,1.50
2019-04-26T05:28:25.783Z,1.32
2019-04-26T05:31:00.050Z,1.30
2019-04-26T05:33:32.763Z,1.40
2019-04-26T05:36:06.939Z,1.80
2019-04-26T05:38:37.686Z,1.45
2019-04-26T05:41:08.881Z,1.40
2019-04-26T05:43:41.734Z,1.40
2019-04-26T05:46:22.068Z,1.40
2019-04-26T05:48:58.176Z,1.30
2019-04-26T05:51:33.191Z,1.62
2019-04-26T05:54:07.500Z,1.20
2019-04-26T05:56:41.749Z,1.50
2019-04-26T05:59:14.417Z,1.40
2019-04-26T06:01:48.734Z,1.40
2019-04-26T06:04:23.052Z,1.35
2019-04-26T06:06:57.298Z,1.20
2019-04-26T06:09:31.524Z,1.45
2019-04-26T06:12:05.801Z,1.30
2019-04-26T06:14:40.167Z,1.30
2019-04-26T06:17:14.053Z,1.20
2019-04-26T06:19:48.368Z,1.15
2019-04-26T06:22:21.034Z,1.40
2019-04-26T06:24:54.234Z,1.20
2019-04-26T06:27:28.550Z,1.27
2019-04-26T06:30:01.340Z,1.40
2019-04-26T06:32:34.138Z,1.17
2019-04-26T06:35:06.492Z,1.20
2019-04-26T06:37:40.804Z,1.42
2019-04-26T06:40:13.445Z,1.42
2019-04-26T06:42:46.014Z,1.20
2019-04-26T06:45:20.335Z,1.55
2019-04-26T06:47:55.962Z,1.30
2019-04-26T06:50:30.508Z,1.27
2019-04-26T06:53:03.611Z,1.70
2019-04-26T06:55:38.104Z,1.12
2019-04-26T06:58:13.088Z,1.32
2019-04-26T07:00:47.536Z,1.35
2019-04-26T07:03:21.339Z,1.12
2019-04-26T07:05:53.983Z,1.15
2019-04-26T07:08:26.961Z,1.27
2019-04-26T07:11:00.577Z,1.42
2019-04-26T07:13:34.982Z,1.10
2019-04-26T07:16:19.609Z,1.45
2019-04-26T07:18:42.575Z,1.30
2019-04-26T07:21:16.862Z,1.20
2019-04-26T07:23:49.588Z,1.57
2019-04-26T07:26:22.300Z,1.30
2019-04-26T07:28:53.525Z,1.62
2019-04-26T07:31:26.297Z,1.50
2019-04-26T07:34:00.785Z,1.40
2019-04-26T07:36:35.891Z,1.55
2019-04-26T07:39:19.680Z,1.50
2019-04-26T07:41:46.863Z,1.32
2019-04-26T07:44:21.169Z,1.57
2019-04-26T07:46:53.808Z,1.40
2019-04-26T07:49:26.534Z,1.30
2019-04-26T07:51:59.249Z,1.70
2019-04-26T07:54:31.926Z,1.27
2019-04-26T07:57:04.683Z,1.35
2019-04-26T07:59:36.967Z,1.40
2019-04-26T08:02:11.269Z,1.40
2019-04-26T08:04:46.775Z,1.42
2019-04-26T08:07:19.422Z,1.50
2019-04-26T08:09:59.908Z,1.50
2019-04-26T08:12:26.401Z,1.30
2019-04-26T08:15:00.743Z,1.70
2019-04-26T08:17:35.154Z,1.67
2019-04-26T08:20:11.417Z,1.47
2019-04-26T08:22:43.815Z,1.90
2019-04-26T08:25:17.537Z,1.62
2019-04-26T08:27:47.163Z,1.80
2019-04-26T08:30:26.997Z,1.85
2019-04-26T08:33:11.352Z,1.70
2019-04-26T08:35:44.391Z,1.45
2019-04-26T08:38:21.958Z,1.72
2019-04-26T08:40:46.798Z,1.47
2019-04-26T08:43:20.174Z,1.67
2019-04-26T08:46:02.777Z,1.57
2019-04-26T08:48:30.179Z,1.62
2019-04-26T08:51:03.893Z,1.50
2019-04-26T08:53:36.378Z,1.72
2019-04-26T08:56:07.316Z,1.35
2019-04-26T08:58:40.139Z,1.17
2019-04-26T09:01:14.436Z,1.40
2019-04-26T09:03:48.772Z,1.42
2019-04-26T09:06:22.203Z,1.82
2019-04-26T09:08:55.577Z,1.52
2019-04-26T09:11:33.534Z,1.30
2019-04-26T09:14:03.237Z,1.50
2019-04-26T09:16:32.956Z,1.32
2019-04-26T09:19:02.622Z,1.42
2019-04-26T09:21:35.551Z,1.30
2019-04-26T09:24:08.167Z,1.32
2019-04-26T09:26:38.523Z,1.40
2019-04-26T09:29:09.883Z,1.40
2019-04-26T09:34:35.896Z,1.32
2019-04-26T09:40:30.276Z,1.10
2019-04-26T09:43:15.176Z,1.40
2019-04-26T09:45:48.154Z,1.20
2019-04-26T09:48:23.412Z,1.02
2019-04-26T09:51:09.517Z,1.42
2019-04-26T09:56:37.574Z,1.20
2019-04-26T09:59:23.405Z,1.10
2019-04-26T10:04:57.309Z,1.00
2019-04-26T10:07:50.508Z,1.10
2019-04-26T10:11:14.899Z,1.07
2019-04-26T10:14:13.220Z,1.22
2019-04-26T10:17:18.629Z,1.00
2019-04-26T10:20:12.099Z,1.10
2019-04-26T10:23:02.776Z,0.98
2019-04-26T10:25:57.563Z,1.17
2019-04-26T10:28:46.710Z,1.00
2019-04-26T10:34:14.767Z,1.25
2019-04-26T10:36:57.041Z,1.30
2019-04-26T10:40:05.793Z,1.67
2019-04-26T10:42:59.260Z,1.87
2019-04-26T10:45:53.598Z,1.57
2019-04-26T10:48:41.414Z,1.80
2019-04-26T10:51:38.741Z,2.00
2019-04-26T10:54:12.373Z,1.50
2019-04-26T10:57:06.299Z,1.80
2019-04-26T11:00:19.548Z,2.10
2019-04-26T11:03:20.575Z,2.02
2019-04-26T11:06:18.757Z,1.95
2019-04-26T11:09:04.562Z,1.60
2019-04-26T11:11:57.920Z,1.67
2019-04-26T11:17:21.792Z,2.10
2019-04-26T11:23:08.239Z,1.92
2019-04-26T11:26:01.516Z,1.98
2019-04-26T11:28:51.316Z,2.00
2019-04-26T11:31:39.245Z,2.10
2019-04-26T11:34:42.809Z,1.80
2019-04-26T11:39:50.285Z,2.10
2019-04-26T11:42:29.027Z,1.95
2019-04-26T11:45:14.782Z,1.80
2019-04-26T11:48:03.785Z,1.95
2019-04-26T11:50:44.610Z,2.03
2019-04-26T11:53:25.724Z,2.00
2019-04-26T11:56:00.204Z,2.00
2019-04-26T11:58:32.567Z,1.95
2019-04-26T12:01:08.436Z,1.90
2019-04-26T12:04:23.380Z,1.45
2019-04-26T12:07:03.779Z,1.72
2019-04-26T12:12:16.839Z,1.82
2019-04-26T12:14:46.543Z,1.40
2019-04-26T12:17:16.227Z,1.32
2019-04-26T12:19:48.180Z,1.37
2019-04-26T12:22:17.279Z,1.15
2019-04-26T12:24:46.851Z,1.50
2019-04-26T12:27:16.659Z,1.00
2019-04-26T12:29:48.216Z,1.10
2019-04-26T12:32:17.937Z,1.22
2019-04-26T12:34:47.540Z,1.05
2019-04-26T12:37:19.984Z,1.02
2019-04-26T12:39:49.056Z,0.62
2019-04-26T12:42:18.801Z,0.70
2019-04-26T12:44:49.968Z,0.40
2019-04-26T12:47:21.324Z,0.40
2019-04-26T12:49:58.559Z,0.30
2019-04-26T12:52:26.218Z,0.30
2019-04-26T12:54:57.676Z,0.30
2019-04-26T12:57:27.162Z,0.40
2019-04-26T12:59:57.670Z,0.20
2019-04-26T13:02:28.162Z,0.30
2019-04-26T13:04:57.772Z,0.30
2019-04-26T13:07:27.469Z,0.20
2019-04-26T13:10:01.104Z,0.20
2019-04-26T13:12:31.569Z,0.20
2019-04-26T13:15:05.867Z,0.20
2019-04-26T13:17:38.373Z,0.15
2019-04-26T13:20:08.775Z,0.20
2019-04-26T13:22:46.117Z,0.20
2019-04-26T13:25:20.323Z,0.20
2019-04-26T13:27:45.576Z,0.20
2019-04-26T13:30:14.366Z,0.20
2019-04-26T13:32:44.114Z,0.20
2019-04-26T13:35:14.615Z,0.20
2019-04-26T13:37:44.796Z,0.30
2019-04-26T13:40:15.653Z,0.33
2019-04-26T13:42:47.415Z,0.20
2019-04-26T13:45:18.088Z,0.30
2019-04-26T13:47:49.348Z,0.30
2019-04-26T13:50:22.366Z,0.33
2019-04-26T13:52:51.962Z,0.30
2019-04-26T13:55:25.456Z,0.30
2019-04-26T13:57:56.069Z,0.30
2019-04-26T14:00:27.713Z,0.40
2019-04-26T14:02:57.273Z,0.40
2019-04-26T14:05:26.879Z,0.40
2019-04-26T14:07:57.758Z,0.40
2019-04-26T14:10:27.524Z,0.98
2019-04-26T14:12:57.125Z,0.40
2019-04-26T14:15:26.803Z,1.70
2019-04-26T14:17:56.420Z,0.40
2019-04-26T14:20:26.775Z,0.70
2019-04-26T14:22:58.260Z,0.40
2019-04-26T14:25:30.688Z,0.60
2019-04-26T14:28:00.563Z,2.77
2019-04-26T14:30:30.285Z,0.50
2019-04-26T14:32:59.905Z,0.70
2019-04-26T14:35:29.543Z,0.40
2019-04-26T14:37:59.225Z,1.02
2019-04-26T14:40:29.017Z,0.80
2019-04-26T14:43:06.561Z,1.00
2019-04-26T14:45:29.873Z,0.50
2019-04-26T14:48:00.115Z,0.50
2019-04-26T14:50:32.135Z,0.50
2019-04-26T14:53:03.441Z,0.40
2019-04-26T14:55:33.345Z,0.50
2019-04-26T14:58:03.070Z,0.40
2019-04-26T15:00:34.322Z,0.37
2019-04-26T15:16:46.750Z,0.95
2019-04-26T15:19:16.417Z,1.22
2019-04-26T15:21:45.904Z,1.70
2019-04-26T15:24:15.562Z,1.40
2019-04-26T15:26:48.164Z,1.50
2019-04-26T15:29:22.648Z,1.17
2019-04-26T16:38:56.145Z,0.40
2019-04-26T16:41:27.291Z,0.40
2019-04-26T16:53:01.896Z,0.30
2019-04-26T16:55:37.983Z,0.30
2019-04-26T16:58:04.472Z,0.37
2019-04-26T17:00:57.188Z,0.30
2019-04-26T17:03:26.238Z,0.42
2019-04-26T17:06:04.653Z,0.50
2019-04-26T17:08:27.036Z,0.53
2019-04-26T17:11:00.547Z,0.53
2019-04-26T17:13:29.957Z,0.50
2019-04-26T17:15:59.951Z,0.30
2019-04-26T17:18:29.660Z,0.50
2019-04-26T17:21:02.635Z,0.55
2019-04-26T17:23:34.259Z,0.50
2019-04-26T17:26:05.511Z,0.65
2019-04-26T17:28:35.557Z,0.70
2019-04-26T17:31:05.229Z,1.25
2019-04-26T17:33:34.838Z,0.90
2019-04-26T17:36:05.006Z,0.70
2019-04-26T17:38:35.198Z,0.70
2019-04-26T17:41:06.568Z,0.70
2019-04-26T17:43:42.251Z,0.70
2019-04-26T17:46:10.461Z,0.60
2019-04-26T17:48:40.853Z,0.70
2019-04-26T17:51:18.400Z,0.60
2019-04-26T17:53:44.088Z,0.62
2019-04-26T17:56:13.423Z,0.80
2019-04-26T17:58:54.517Z,0.50
2019-04-26T18:01:41.882Z,0.40
2019-04-26T18:03:56.388Z,0.57
2019-04-26T18:06:29.832Z,0.70
2019-04-26T18:09:00.387Z,0.57
2019-04-26T18:11:33.650Z,0.70
2019-04-26T18:14:03.292Z,0.57
2019-04-26T18:16:34.468Z,0.62
2019-04-26T18:19:05.148Z,0.57
2019-04-26T18:21:36.865Z,0.50
2019-04-26T18:24:06.566Z,0.60
2019-04-26T18:26:44.012Z,0.80
2019-04-26T18:30:20.924Z,0.70
2019-04-26T19:42:14.559Z,0.65
2019-04-26T19:51:19.054Z,0.78
2019-04-26T19:53:54.188Z,3.87
2019-04-26T19:56:27.727Z,1.10
2019-04-26T20:05:23.768Z,1.03
2019-04-26T20:08:29.453Z,1.00
2019-04-26T20:10:59.151Z,1.10
2019-04-26T20:13:28.671Z,1.50
2019-04-26T20:16:02.736Z,1.30
2019-04-26T20:18:32.761Z,0.90
2019-04-26T20:21:06.592Z,1.17
2019-04-26T20:23:38.290Z,1.70
2019-04-26T20:26:07.083Z,1.65
2019-04-26T20:28:51.411Z,1.65
2019-04-26T20:31:23.044Z,1.92
2019-04-26T20:33:52.526Z,1.80
2019-04-26T20:36:22.103Z,1.62
2019-04-26T20:38:52.167Z,2.25
2019-04-26T20:41:22.175Z,2.25
2019-04-26T20:44:04.724Z,2.95
2019-04-26T20:46:25.200Z,3.75
2019-04-26T20:48:55.077Z,2.37
2019-04-26T21:03:01.226Z,2.02
2019-04-26T21:19:58.584Z,2.00
2019-04-26T21:22:28.709Z,2.30
2019-04-26T21:24:59.550Z,2.30
2019-04-26T21:27:29.771Z,2.37
2019-04-26T21:30:03.418Z,2.37
2019-04-26T21:32:37.692Z,2.60
2019-04-26T21:35:08.641Z,2.40
2019-04-26T21:37:39.865Z,2.27
2019-04-26T21:40:11.230Z,2.00
2019-04-26T21:42:43.330Z,2.70
2019-04-26T22:34:47.447Z,2.12
2019-04-26T22:37:29.169Z,2.10
2019-04-26T22:39:48.421Z,2.17
2019-04-26T22:42:19.545Z,2.60
2019-04-26T22:44:50.846Z,2.70
2019-04-26T22:47:23.934Z,1.55
